Spokeville, Wisconsin
Current Conditions -  °F | °C
As of 12:54 PM on Thursday 27 Nov 2014 (Local Time) from KMFI Reporting Station
Clear Clear  
Wind Chill: -4°   Ceiling: Unl
Heat Index: 10°   Visibility: 10mi
Dew Point:   Wind: 10mph
Humidity: 64%   Direction: 290°WNW
Pressure: 30.36"   Gusts: NA
Location:  44.7314°N, 90.4931°W
Report Text: KMFI 271854Z AUTO 29009KT 10SM CLR M12/M18 A3036 RMK AO2 SLP308 T11221178
Loading
Personal Weather Stations






























Interactive Weather Map New forecast layout! Learn more

10-Day Weather Forecast

Advertisements
Track Severe Weather on mobile